createdAt,value
2019-02-08T00:00:28.342Z,38.70
2019-02-08T00:02:57.801Z,40.77
2019-02-08T00:05:26.376Z,37.60
2019-02-08T00:07:55.787Z,39.43
2019-02-08T00:10:24.420Z,44.00
2019-02-08T00:12:53.129Z,45.13
2019-02-08T00:15:23.719Z,43.37
2019-02-08T00:17:52.995Z,36.37
2019-02-08T00:20:22.705Z,43.83
2019-02-08T00:22:51.597Z,39.20
2019-02-08T00:25:21.714Z,38.53
2019-02-08T00:27:50.800Z,47.10
2019-02-08T00:30:28.629Z,41.70
2019-02-08T00:32:57.955Z,39.37
2019-02-08T00:35:27.065Z,41.13
2019-02-08T00:37:55.992Z,49.63
2019-02-08T00:40:25.897Z,47.47
2019-02-08T00:42:55.197Z,46.67
2019-02-08T00:45:24.601Z,52.47
2019-02-08T00:47:53.593Z,42.53
2019-02-08T00:50:27.577Z,41.87
2019-02-08T00:52:56.701Z,38.70
2019-02-08T00:55:25.628Z,50.73
2019-02-08T00:57:54.559Z,34.53
2019-02-08T01:00:23.945Z,38.07
2019-02-08T01:02:53.845Z,40.47
2019-02-08T01:05:27.301Z,34.63
2019-02-08T01:07:56.617Z,35.33
2019-02-08T01:10:30.915Z,43.90
2019-02-08T01:13:00.836Z,33.70
2019-02-08T01:15:31.950Z,33.77
2019-02-08T01:18:00.859Z,28.43
2019-02-08T01:20:29.965Z,32.97
2019-02-08T01:22:58.614Z,32.00
2019-02-08T01:25:31.810Z,34.77
2019-02-08T01:28:00.777Z,28.53
2019-02-08T01:30:34.632Z,28.80
2019-02-08T01:33:03.271Z,26.07
2019-02-08T01:35:32.779Z,24.67
2019-02-08T01:38:01.991Z,23.87
2019-02-08T01:40:34.842Z,23.10
2019-02-08T01:43:04.931Z,24.33
2019-02-08T01:45:34.227Z,22.10
2019-02-08T01:48:06.833Z,28.63
2019-02-08T01:50:35.709Z,16.27
2019-02-08T01:53:05.003Z,26.83
2019-02-08T01:55:33.889Z,30.23
2019-02-08T01:58:02.982Z,21.00
2019-02-08T02:00:35.195Z,20.93
2019-02-08T02:03:04.797Z,27.07
2019-02-08T02:05:33.948Z,23.17
2019-02-08T02:08:02.653Z,17.67
2019-02-08T02:10:37.071Z,20.20
2019-02-08T02:13:06.377Z,22.90
2019-02-08T02:15:35.667Z,20.53
2019-02-08T02:18:05.579Z,28.10
2019-02-08T02:20:37.055Z,25.13
2019-02-08T02:23:07.053Z,25.00
2019-02-08T02:25:35.739Z,28.20
2019-02-08T02:28:06.049Z,20.13
2019-02-08T02:30:36.375Z,27.80
2019-02-08T02:33:08.135Z,21.97
2019-02-08T02:35:37.048Z,21.07
2019-02-08T02:38:06.542Z,23.93
2019-02-08T02:40:35.511Z,31.60
2019-02-08T02:43:05.406Z,20.83
2019-02-08T02:45:39.519Z,26.20
2019-02-08T02:48:10.279Z,30.60
2019-02-08T02:50:39.115Z,24.23
2019-02-08T02:53:08.067Z,19.80
2019-02-08T02:55:36.965Z,26.57
2019-02-08T02:58:06.859Z,20.43
2019-02-08T03:00:38.585Z,22.60
2019-02-08T03:03:08.008Z,24.83
2019-02-08T03:05:37.586Z,18.83
2019-02-08T03:08:08.370Z,25.60
2019-02-08T03:10:37.478Z,26.63
2019-02-08T03:13:07.780Z,23.77
2019-02-08T03:15:36.411Z,19.20
2019-02-08T03:18:06.027Z,17.30
2019-02-08T03:20:34.828Z,31.07
2019-02-08T03:23:03.861Z,19.10
2019-02-08T03:25:32.567Z,18.00
2019-02-08T03:28:01.347Z,18.17
2019-02-08T03:30:42.025Z,17.43
2019-02-08T03:33:10.799Z,22.07
2019-02-08T03:35:39.502Z,22.53
2019-02-08T03:38:08.573Z,23.13
2019-02-08T03:40:37.191Z,20.33
2019-02-08T03:43:06.146Z,22.37
2019-02-08T03:45:37.762Z,22.33
2019-02-08T03:48:07.235Z,33.33
2019-02-08T03:50:35.867Z,17.30
2019-02-08T03:53:08.478Z,16.03
2019-02-08T03:55:37.089Z,22.80
2019-02-08T03:58:06.859Z,27.17
2019-02-08T04:00:50.171Z,18.37
2019-02-08T04:03:19.185Z,23.40
2019-02-08T04:05:47.941Z,14.70
2019-02-08T04:08:16.966Z,16.43
2019-02-08T04:10:45.707Z,21.70
2019-02-08T04:13:14.443Z,14.07
2019-02-08T04:15:43.135Z,20.53
2019-02-08T04:18:12.160Z,32.17
2019-02-08T04:20:40.723Z,14.33
2019-02-08T04:23:09.700Z,14.40
2019-02-08T04:25:38.261Z,9.30
2019-02-08T04:28:07.485Z,12.83
2019-02-08T04:30:36.130Z,17.07
2019-02-08T04:33:05.868Z,15.20
2019-02-08T04:35:34.567Z,14.53
2019-02-08T04:38:03.442Z,14.67
2019-02-08T04:40:32.071Z,15.00
2019-02-08T04:43:03.316Z,18.07
2019-02-08T04:45:31.881Z,13.77
2019-02-08T04:48:00.656Z,13.13
2019-02-08T04:50:30.152Z,13.93
2019-02-08T04:52:59.060Z,16.53
2019-02-08T04:55:28.310Z,13.80
2019-02-08T04:57:57.648Z,13.37
2019-02-08T05:00:32.227Z,17.80
2019-02-08T05:03:01.785Z,16.00
2019-02-08T05:05:30.816Z,19.20
2019-02-08T05:07:59.770Z,15.03
2019-02-08T05:10:31.673Z,14.07
2019-02-08T05:13:01.031Z,14.33
2019-02-08T05:15:29.779Z,11.93
2019-02-08T05:17:58.813Z,13.63
2019-02-08T05:20:29.885Z,14.20
2019-02-08T05:22:59.037Z,10.70
2019-02-08T05:25:27.836Z,20.20
2019-02-08T05:27:56.633Z,10.20
2019-02-08T05:30:27.537Z,18.40
2019-02-08T05:32:56.653Z,19.27
2019-02-08T05:35:25.756Z,21.93
2019-02-08T05:37:54.851Z,15.53
2019-02-08T05:40:23.992Z,14.90
2019-02-08T05:42:53.575Z,10.90
2019-02-08T05:45:26.882Z,14.20
2019-02-08T05:47:55.945Z,15.93
2019-02-08T05:50:29.105Z,21.97
2019-02-08T05:52:58.334Z,10.83
2019-02-08T05:55:31.762Z,15.90
2019-02-08T05:58:01.332Z,18.73
2019-02-08T06:00:36.913Z,17.07
2019-02-08T06:03:06.658Z,11.87
2019-02-08T06:05:35.594Z,14.27
2019-02-08T06:08:05.087Z,15.83
2019-02-08T06:10:36.692Z,8.07
2019-02-08T06:13:07.378Z,14.23
2019-02-08T06:15:36.275Z,14.40
2019-02-08T06:18:06.663Z,15.47
2019-02-08T06:20:35.495Z,9.97
2019-02-08T06:23:07.644Z,12.33
2019-02-08T06:25:36.386Z,12.00
2019-02-08T06:28:06.252Z,10.77
2019-02-08T06:30:35.639Z,8.47
2019-02-08T06:33:05.309Z,10.83
2019-02-08T06:35:37.184Z,11.63
2019-02-08T06:38:06.627Z,12.27
2019-02-08T06:40:38.302Z,16.17
2019-02-08T06:43:07.731Z,15.37
2019-02-08T06:45:36.824Z,12.33
2019-02-08T06:48:07.483Z,12.87
2019-02-08T06:50:36.591Z,11.87
2019-02-08T06:53:05.393Z,12.30
2019-02-08T06:55:34.274Z,12.13
2019-02-08T06:58:17.091Z,16.47
2019-02-08T07:00:52.483Z,7.93
2019-02-08T07:03:22.821Z,15.20
2019-02-08T07:05:53.128Z,10.80
2019-02-08T07:08:35.259Z,11.80
2019-02-08T07:11:05.543Z,10.90
2019-02-08T07:13:39.119Z,16.70
2019-02-08T07:16:09.393Z,15.03
2019-02-08T07:18:42.853Z,14.07
2019-02-08T07:21:28.090Z,9.87
2019-02-08T07:23:58.845Z,7.27
2019-02-08T07:26:29.103Z,8.53
2019-02-08T07:28:59.307Z,12.90
2019-02-08T07:31:30.018Z,14.87
2019-02-08T07:34:03.071Z,10.93
2019-02-08T07:36:36.659Z,14.53
2019-02-08T07:39:19.031Z,19.27
2019-02-08T07:41:56.203Z,11.77
2019-02-08T07:44:29.476Z,10.77
2019-02-08T07:47:09.537Z,8.37
2019-02-08T07:49:52.942Z,9.40
2019-02-08T07:52:30.330Z,8.63
2019-02-08T07:55:03.234Z,12.90
2019-02-08T07:57:48.969Z,14.80
2019-02-08T08:00:20.221Z,18.03
2019-02-08T08:02:52.979Z,9.63
2019-02-08T08:05:25.130Z,14.33
2019-02-08T08:08:07.652Z,19.03
2019-02-08T08:10:38.891Z,13.80
2019-02-08T08:13:09.105Z,15.73
2019-02-08T08:15:43.750Z,10.10
2019-02-08T08:18:14.623Z,18.33
2019-02-08T08:21:01.890Z,18.00
2019-02-08T08:23:33.832Z,25.17
2019-02-08T08:26:07.715Z,19.37
2019-02-08T08:28:38.052Z,13.87
2019-02-08T08:31:17.137Z,16.80
2019-02-08T08:33:51.335Z,10.30
2019-02-08T08:36:44.405Z,8.13
2019-02-08T08:39:47.114Z,11.80
2019-02-08T08:42:50.570Z,12.53
2019-02-08T08:45:30.414Z,16.60
2019-02-08T08:48:20.580Z,13.63
2019-02-08T08:51:08.529Z,11.17
2019-02-08T08:54:02.118Z,20.80
2019-02-08T08:56:49.023Z,18.03
2019-02-08T08:59:40.956Z,20.80
2019-02-08T09:02:24.992Z,9.90
2019-02-08T09:05:20.617Z,17.67
2019-02-08T09:08:13.272Z,8.97
2019-02-08T09:10:56.819Z,14.37
2019-02-08T09:13:41.046Z,9.43
2019-02-08T09:16:38.179Z,25.23
2019-02-08T09:19:26.342Z,17.77
2019-02-08T09:22:06.636Z,16.07
2019-02-08T09:24:55.479Z,12.87
2019-02-08T09:27:32.850Z,14.77
2019-02-08T09:30:16.796Z,7.87
2019-02-08T09:33:00.296Z,12.40
2019-02-08T09:35:35.164Z,16.47
2019-02-08T09:38:37.060Z,10.10
2019-02-08T09:41:25.414Z,11.60
2019-02-08T09:44:23.789Z,11.53
2019-02-08T09:47:01.659Z,16.90
2019-02-08T09:50:04.134Z,13.13
2019-02-08T09:53:01.903Z,11.13
2019-02-08T09:55:57.784Z,11.83
2019-02-08T09:58:32.048Z,14.03
2019-02-08T10:01:09.956Z,14.17
2019-02-08T10:03:59.569Z,8.40
2019-02-08T10:07:04.490Z,11.20
2019-02-08T10:09:54.838Z,18.83
2019-02-08T10:12:53.757Z,10.67
2019-02-08T10:15:34.427Z,13.80
2019-02-08T10:18:35.508Z,13.70
2019-02-08T10:21:32.912Z,16.63
2019-02-08T10:24:21.001Z,13.70
2019-02-08T10:27:01.415Z,5.30
2019-02-08T10:30:03.560Z,14.07
2019-02-08T10:32:52.975Z,11.63
2019-02-08T10:35:45.293Z,13.57
2019-02-08T10:38:25.755Z,3.67
2019-02-08T10:41:32.337Z,10.20
2019-02-08T10:44:37.365Z,10.70
2019-02-08T10:47:27.176Z,11.30
2019-02-08T10:50:15.390Z,10.80
2019-02-08T10:53:07.190Z,9.33
2019-02-08T10:56:04.782Z,9.30
2019-02-08T10:58:45.193Z,8.63
2019-02-08T11:01:29.187Z,6.57
2019-02-08T11:04:34.234Z,10.80
2019-02-08T11:07:12.002Z,7.20
2019-02-08T11:10:17.378Z,9.27
2019-02-08T11:12:52.028Z,8.23
2019-02-08T11:15:40.342Z,14.67
2019-02-08T11:18:37.065Z,10.40
2019-02-08T11:21:06.590Z,14.10
2019-02-08T11:23:35.411Z,11.10
2019-02-08T11:26:05.196Z,22.77
2019-02-08T11:28:34.490Z,15.03
2019-02-08T11:31:03.246Z,11.00
2019-02-08T11:33:31.951Z,10.97
2019-02-08T11:36:01.174Z,13.23
2019-02-08T11:38:29.720Z,17.57
2019-02-08T11:40:58.438Z,4.70
2019-02-08T11:43:27.044Z,12.57
2019-02-08T11:45:56.112Z,12.27
2019-02-08T11:48:24.798Z,7.40
2019-02-08T11:50:53.504Z,7.97
2019-02-08T11:53:22.628Z,13.23
2019-02-08T11:55:51.468Z,12.67
2019-02-08T11:58:20.032Z,15.80
2019-02-08T12:00:50.481Z,9.50
2019-02-08T12:03:19.373Z,4.30
2019-02-08T12:05:48.142Z,6.03
2019-02-08T12:08:16.828Z,14.83
2019-02-08T12:10:45.628Z,6.10
2019-02-08T12:13:14.256Z,13.43
2019-02-08T12:15:43.247Z,10.30
2019-02-08T12:18:11.972Z,5.63
2019-02-08T12:20:40.991Z,13.17
2019-02-08T12:23:09.628Z,18.27
2019-02-08T12:25:38.422Z,11.10
2019-02-08T12:28:07.056Z,12.93
2019-02-08T12:30:39.018Z,8.93
2019-02-08T12:33:07.812Z,17.00
2019-02-08T12:35:36.641Z,8.40
2019-02-08T12:38:05.242Z,14.07
2019-02-08T12:40:34.130Z,9.73
2019-02-08T12:43:02.754Z,9.40
2019-02-08T12:45:31.463Z,10.73
2019-02-08T12:48:00.120Z,8.23
2019-02-08T12:50:28.809Z,9.73
2019-02-08T12:52:57.963Z,7.20
2019-02-08T12:55:26.764Z,8.60
2019-02-08T12:57:55.611Z,15.47
2019-02-08T13:00:27.843Z,6.77
2019-02-08T13:02:56.390Z,8.50
2019-02-08T13:05:25.104Z,8.10
2019-02-08T13:07:54.134Z,6.33
2019-02-08T13:10:25.472Z,5.00
2019-02-08T13:12:54.182Z,4.37
2019-02-08T13:15:23.239Z,12.57
2019-02-08T13:17:51.928Z,7.27
2019-02-08T13:20:22.834Z,9.13
2019-02-08T13:22:51.653Z,12.07
2019-02-08T13:25:20.349Z,7.60
2019-02-08T13:27:51.017Z,9.67
2019-02-08T13:30:22.310Z,4.60
2019-02-08T13:32:51.620Z,7.53
2019-02-08T13:35:20.256Z,6.30
2019-02-08T13:37:49.227Z,5.90
2019-02-08T13:40:28.967Z,8.20
2019-02-08T13:42:58.039Z,9.17
2019-02-08T13:45:26.936Z,8.30
2019-02-08T13:47:55.706Z,6.13
2019-02-08T13:50:29.476Z,13.03
2019-02-08T13:52:58.606Z,5.03
2019-02-08T13:55:28.191Z,15.77
2019-02-08T13:57:57.220Z,5.77
2019-02-08T14:00:34.579Z,8.00
2019-02-08T14:03:03.368Z,5.83
2019-02-08T14:05:32.053Z,4.77
2019-02-08T14:08:00.990Z,11.47
2019-02-08T14:10:29.705Z,14.33
2019-02-08T14:12:58.315Z,5.80
2019-02-08T14:15:28.853Z,8.93
2019-02-08T14:17:57.470Z,14.20
2019-02-08T14:20:28.018Z,8.13
2019-02-08T14:22:56.707Z,8.37
2019-02-08T14:25:26.800Z,14.53
2019-02-08T14:27:55.496Z,7.13
2019-02-08T14:30:38.907Z,8.70
2019-02-08T14:33:07.601Z,6.87
2019-02-08T14:35:36.805Z,6.50
2019-02-08T14:38:08.817Z,13.23
2019-02-08T14:40:37.593Z,10.17
2019-02-08T14:43:06.278Z,7.43
2019-02-08T14:45:35.664Z,11.13
2019-02-08T14:48:04.594Z,20.73
2019-02-08T14:50:33.730Z,8.40
2019-02-08T14:53:02.718Z,6.00
2019-02-08T14:55:31.433Z,14.20
2019-02-08T14:58:02.494Z,14.17
2019-02-08T15:00:31.273Z,9.27
2019-02-08T15:02:59.977Z,5.93
2019-02-08T15:05:28.740Z,11.10
2019-02-08T15:07:57.702Z,5.30
2019-02-08T15:10:32.764Z,10.70
2019-02-08T15:13:01.643Z,8.07
2019-02-08T15:15:30.475Z,8.60
2019-02-08T15:17:59.042Z,8.03
2019-02-08T15:20:37.996Z,9.00
2019-02-08T15:23:07.031Z,6.77
2019-02-08T15:25:36.527Z,10.00
2019-02-08T15:28:05.248Z,5.80
2019-02-08T15:30:36.673Z,3.20
2019-02-08T15:33:05.946Z,9.03
2019-02-08T15:35:35.199Z,7.40
2019-02-08T15:38:05.444Z,17.13
2019-02-08T15:40:37.033Z,12.30
2019-02-08T15:43:06.522Z,11.37
2019-02-08T15:45:35.906Z,6.70
2019-02-08T15:48:05.121Z,9.20
2019-02-08T15:50:34.024Z,7.10
2019-02-08T15:53:03.131Z,12.00
2019-02-08T15:55:37.356Z,11.30
2019-02-08T15:58:06.257Z,9.83
2019-02-08T16:00:37.111Z,12.17
2019-02-08T16:03:07.911Z,11.63
2019-02-08T16:05:36.797Z,15.40
2019-02-08T16:08:05.728Z,8.20
2019-02-08T16:10:34.591Z,18.03
2019-02-08T16:13:03.139Z,9.60
2019-02-08T16:15:32.386Z,16.13
2019-02-08T16:18:01.009Z,22.83
2019-02-08T16:20:30.771Z,13.20
2019-02-08T16:23:00.072Z,11.00
2019-02-08T16:25:30.666Z,15.83
2019-02-08T16:27:59.364Z,13.97
2019-02-08T16:30:38.204Z,21.30
2019-02-08T16:33:08.296Z,19.80
2019-02-08T16:35:37.172Z,15.40
2019-02-08T16:38:07.325Z,31.87
2019-02-08T16:40:36.219Z,29.10
2019-02-08T16:43:05.926Z,15.53
2019-02-08T16:45:39.146Z,15.40
2019-02-08T16:48:13.682Z,19.07
2019-02-08T16:50:43.560Z,9.67
2019-02-08T16:53:13.319Z,13.83
2019-02-08T16:55:42.269Z,12.17
2019-02-08T16:58:12.759Z,9.30
2019-02-08T17:00:42.677Z,11.23
2019-02-08T17:03:14.057Z,10.50
2019-02-08T17:05:45.068Z,9.90
2019-02-08T17:08:13.860Z,10.50
2019-02-08T17:10:42.571Z,11.10
2019-02-08T17:13:11.300Z,9.47
2019-02-08T17:15:40.075Z,8.07
2019-02-08T17:18:09.383Z,5.30
2019-02-08T17:20:41.092Z,5.97
2019-02-08T17:23:10.098Z,6.13
2019-02-08T17:25:38.879Z,9.47
2019-02-08T17:28:08.389Z,8.70
2019-02-08T17:30:38.169Z,13.07
2019-02-08T17:33:08.256Z,10.33
2019-02-08T17:35:37.040Z,7.20
2019-02-08T17:38:05.827Z,12.40
2019-02-08T17:40:37.455Z,12.93
2019-02-08T17:43:06.461Z,8.90
2019-02-08T17:45:35.105Z,7.27
2019-02-08T17:48:05.724Z,14.73
2019-02-08T17:50:34.508Z,9.50
2019-02-08T17:53:03.569Z,7.17
2019-02-08T17:55:32.537Z,9.60
2019-02-08T17:58:03.540Z,14.07
2019-02-08T18:00:44.967Z,10.90
2019-02-08T18:03:13.588Z,12.73
2019-02-08T18:05:42.532Z,17.30
2019-02-08T18:08:11.435Z,11.77
2019-02-08T18:10:40.735Z,18.93
2019-02-08T18:13:09.435Z,20.57
2019-02-08T18:15:38.220Z,14.57
2019-02-08T18:18:09.606Z,16.07
2019-02-08T18:20:47.043Z,20.50
2019-02-08T18:23:15.675Z,12.50
2019-02-08T18:25:44.818Z,14.90
2019-02-08T18:28:13.459Z,12.57
2019-02-08T18:30:42.168Z,9.77
2019-02-08T18:33:11.079Z,18.33
2019-02-08T18:35:39.717Z,14.97
2019-02-08T18:38:08.497Z,10.30
2019-02-08T18:40:37.143Z,19.37
2019-02-08T18:43:06.033Z,17.17
2019-02-08T18:45:36.626Z,19.80
2019-02-08T18:48:06.917Z,16.13
2019-02-08T18:50:38.382Z,14.13
2019-02-08T18:53:07.945Z,18.20
2019-02-08T18:55:36.546Z,17.03
2019-02-08T18:58:06.238Z,16.50
2019-02-08T19:00:40.491Z,15.40
2019-02-08T19:03:09.550Z,19.70
2019-02-08T19:05:38.469Z,20.33
2019-02-08T19:08:07.673Z,18.10
2019-02-08T19:10:55.574Z,22.43
2019-02-08T19:13:25.181Z,15.97
2019-02-08T19:15:53.831Z,19.07
2019-02-08T19:18:22.863Z,15.63
2019-02-08T19:20:51.499Z,20.73
2019-02-08T19:23:20.238Z,17.13
2019-02-08T19:25:48.942Z,17.80
2019-02-08T19:28:17.629Z,18.00
2019-02-08T19:30:46.536Z,17.47
2019-02-08T19:33:15.598Z,18.10
2019-02-08T19:35:44.313Z,19.53
2019-02-08T19:38:13.164Z,22.83
2019-02-08T19:40:44.266Z,24.13
2019-02-08T19:43:13.770Z,22.43
2019-02-08T19:45:42.632Z,26.23
2019-02-08T19:48:12.217Z,36.73
2019-02-08T19:50:42.722Z,32.80
2019-02-08T19:53:12.115Z,42.47
2019-02-08T19:55:41.304Z,29.53
2019-02-08T19:58:10.781Z,32.10
2019-02-08T20:00:44.349Z,35.87
2019-02-08T20:03:13.942Z,28.67
2019-02-08T20:05:42.664Z,37.30
2019-02-08T20:08:13.047Z,28.70
2019-02-08T20:10:49.408Z,33.00
2019-02-08T20:13:18.129Z,35.33
2019-02-08T20:15:46.759Z,36.40
2019-02-08T20:18:15.697Z,26.87
2019-02-08T20:20:44.397Z,41.00
2019-02-08T20:23:13.277Z,44.17
2019-02-08T20:25:41.913Z,27.07
2019-02-08T20:28:10.852Z,34.07
2019-02-08T20:30:39.477Z,42.67
2019-02-08T20:33:08.694Z,35.20
2019-02-08T20:35:37.392Z,36.00
2019-02-08T20:38:06.686Z,35.20
2019-02-08T20:40:43.969Z,33.23
2019-02-08T20:43:12.792Z,34.03
2019-02-08T20:45:41.610Z,35.53
2019-02-08T20:48:16.415Z,34.50
2019-02-08T20:50:45.401Z,32.10
2019-02-08T20:53:14.675Z,29.87
2019-02-08T20:55:43.253Z,30.23
2019-02-08T20:58:13.042Z,30.60
2019-02-08T21:00:44.396Z,37.67
2019-02-08T21:03:13.949Z,31.23
2019-02-08T21:05:43.817Z,33.17
2019-02-08T21:08:13.481Z,30.60
2019-02-08T21:10:42.839Z,30.73
2019-02-08T21:13:12.633Z,26.70
2019-02-08T21:15:41.411Z,31.47
2019-02-08T21:18:10.392Z,31.17
2019-02-08T21:20:39.873Z,31.20
2019-02-08T21:23:09.186Z,33.87
2019-02-08T21:25:40.192Z,28.93
2019-02-08T21:28:09.183Z,26.90
2019-02-08T21:30:38.079Z,26.43
2019-02-08T21:33:08.625Z,32.97
2019-02-08T21:35:37.417Z,36.50
2019-02-08T21:38:07.634Z,30.30
2019-02-08T21:40:36.722Z,24.23
2019-02-08T21:43:06.721Z,23.40
2019-02-08T21:45:43.319Z,32.97
2019-02-08T21:48:13.432Z,24.57
2019-02-08T21:50:42.242Z,28.80
2019-02-08T21:53:11.113Z,23.57
2019-02-08T21:55:40.487Z,23.90
2019-02-08T21:58:09.800Z,26.23
2019-02-08T22:00:40.979Z,21.20
2019-02-08T22:03:10.635Z,27.27
2019-02-08T22:05:54.175Z,21.03
2019-02-08T22:08:22.917Z,21.33
2019-02-08T22:10:51.601Z,25.30
2019-02-08T22:13:20.728Z,22.13
2019-02-08T22:15:49.637Z,24.97
2019-02-08T22:18:18.575Z,27.40
2019-02-08T22:20:47.143Z,23.97
2019-02-08T22:23:16.127Z,25.07
2019-02-08T22:25:44.961Z,22.10
2019-02-08T22:28:13.803Z,28.53
2019-02-08T22:30:42.707Z,23.70
2019-02-08T22:33:11.833Z,25.20
2019-02-08T22:35:41.067Z,29.90
2019-02-08T22:38:10.062Z,36.00
2019-02-08T22:40:38.946Z,21.40
2019-02-08T22:43:07.871Z,25.90
2019-02-08T22:45:38.953Z,25.67
2019-02-08T22:48:08.259Z,20.20
2019-02-08T22:50:37.618Z,22.63
2019-02-08T22:53:07.703Z,26.50
2019-02-08T22:55:37.264Z,20.97
2019-02-08T22:58:07.976Z,19.63
2019-02-08T23:00:42.715Z,17.07
2019-02-08T23:03:13.128Z,22.40
2019-02-08T23:05:45.532Z,16.60
2019-02-08T23:08:13.351Z,14.93
2019-02-08T23:10:42.089Z,15.53
2019-02-08T23:13:11.271Z,15.37
2019-02-08T23:15:40.060Z,15.57
2019-02-08T23:18:10.010Z,13.90
2019-02-08T23:20:41.353Z,12.97
2019-02-08T23:23:10.189Z,13.37
2019-02-08T23:25:38.875Z,11.90
2019-02-08T23:28:07.872Z,20.67
2019-02-08T23:30:37.155Z,8.47
2019-02-08T23:33:06.265Z,13.43
2019-02-08T23:35:42.543Z,8.47
2019-02-08T23:38:05.914Z,12.80
2019-02-08T23:40:34.564Z,12.37
2019-02-08T23:43:03.271Z,15.73
2019-02-08T23:45:31.915Z,7.63
2019-02-08T23:48:00.482Z,12.23
2019-02-08T23:50:29.221Z,11.80
2019-02-08T23:52:57.771Z,15.23
2019-02-08T23:55:28.057Z,13.17
2019-02-08T23:57:56.699Z,7.57
